Accueil
METAR-TAF:

METAR-TAF

Aéroports :

Wales, Alaska, États-Unis

latitude: 65-37-21N, longitude: 168-05-42W, altitude: 7 m

Observation

Le bulletin a été fait il y a 58 minutes, à 06:56 UTC
Vent 21 kt de est/nord-est
Température -23°C
Humidité 84%
Pression 1012 hPa
Visibilité: 6.4 km
Ciel clair
brume

METAR: PAIW 060656Z AUTO 06021KT 4SM BR CLR M23/M25 A2989 RMK AO2 PK WND 07027/0635 SLP121 T12281250 FZRANO

Heure: 22:54 (07:54 UTC)


TAF: absent

Observations et prévisions météorologiques de plus de 4000 aéroports (messages METAR et TAF).

Les stations disponibles sont représentées par des disques jaunes et rouges sur la carte.

Passer la souris dessus pour voir le nom de la station.

Cliquer dessus pour voir les observations et prévisions météorologiques.

Pour changer de carte: cliquez sur les boutons verts avec une croix noire pour zoomer, sur le bouton vert avec un tiret pour effectuer un zoom arrière, ou sur les flèches vertes pour les cartes adjacentes.


METAR-TAF: